Flight Track Log - Related Links

Times and Time Zones

All times are in EST time to prevent confusion due to time zone crossing. See the N612CT flight status page for this flight to view local times or setup timezone preferences in your user account.


Time Position Orientation Groundspeed Altitude Reporting Facility
EST Latitude Longitude Course Direction KTS MPH feet Rate Location/Type
Thu 10:58:00 PM 26.5858 -80.4095 263° West  Level Estimated
Thu 10:59:00 PM 26.5898 -80.4647 275° West  Level FlightAware Approximate
Thu 11:00:00 PM 26.5937 -80.5199 275° West  Level FlightAware Approximate
Thu 11:01:00 PM 26.5758 -80.5715 242° Southwest  Level Estimated
Thu 11:01:39 PM 26.5939 -80.3600 260° West 170 196 6,000  Level Miami Center
Thu 11:02:00 PM 26.5670 -80.6260 260° West  Level FlightAware Approximate
Thu 11:02:39 PM 26.6008 -80.4183 278° West 176 203 6,000  Level Miami Center
Thu 11:03:00 PM 26.5581 -80.6805 260° West  Level FlightAware Approximate
Thu 11:03:41 PM 26.6039 -80.4672 274° West 176 203 6,000  Level Miami Center
Thu 11:04:00 PM 26.5492 -80.7349 260° West  Level FlightAware Approximate
Thu 11:04:40 PM 26.6086 -80.5256 275° West 176 203 6,000  Level Miami Center
Thu 11:05:00 PM 26.5403 -80.7893 260° West  Level FlightAware Approximate
Thu 11:05:40 PM 26.6117 -80.5719 274° West 176 203 6,000  Level Miami Center
Thu 11:06:40 PM 26.6164 -80.6303 275° West 176 203 6,000  Level Miami Center
Thu 11:07:38 PM 26.6214 -80.6817 276° West 176 203 6,000  Level Miami Center
Thu 11:08:39 PM 26.6242 -80.7375 273° West 176 203 6,000  Level Miami Center
Thu 11:09:41 PM 26.6231 -80.7792 268° West 165 190 6,000  Level Miami Center
Thu 11:10:39 PM 26.6008 -80.8272 243° Southwest 165 190 6,000  Level Miami Center
Thu 11:11:41 PM 26.5767 -80.8750 241° Southwest 171 197 6,000  Level Miami Center
Thu 11:12:38 PM 26.5564 -80.9233 245° Southwest 171 197 6,000  Level Miami Center
Thu 11:13:39 PM 26.5342 -80.9689 241° Southwest 176 203 6,000  Level Miami Center
Thu 11:14:39 PM 26.5142 -81.0100 241° Southwest 176 203 6,000  Level Miami Center
Thu 11:15:39 PM 26.4919 -81.0578 243° Southwest 181 208 6,000  Level Miami Center
Thu 11:16:38 PM 26.4675 -81.1081 242° Southwest 176 203 6,000  Level Miami Center
Thu 11:17:40 PM 26.4475 -81.1492 241° Southwest 176 203 6,000  Level Miami Center
Thu 11:18:39 PM 26.4231 -81.2017 243° Southwest 176 203 6,000 -101 Level Miami Center
Thu 11:19:39 PM 26.4031 -81.2472 244° Southwest 176 203 5,800 -250 Descending Miami Center
Thu 11:20:39 PM 26.3783 -81.2972 241° Southwest 176 203 5,500 -298 Descending Miami Center
Thu 11:21:40 PM 26.3581 -81.3453 245° Southwest 176 203 5,200 -295 Descending Miami Center
Thu 11:23:00 PM 26.3381 -81.4030 249° West  Level FlightAware Approximate
Thu 11:30:00 PM 26.1852 -81.6801 237° Southwest  Level FlightAware Approximate
Thu 11:31:00 PM 26.1678 -81.7221 246° West  Level FlightAware Approximate
Thu 11:32:00 PM 26.1509 -81.7644 246° West  Level FlightAware Approximate

Login

Don't have an account? Register now (free) for customized features, flight alerts, and more!